EZY76FD EGCC-EGHQ
Flight info
| Callsign | EZY76FD |
|---|---|
| Flight time | 0h 45m |
| Altitude | 23000 |
| Route | KUXEM P17 BEPHE/N0361F220 DCT OSSEP/N0355F210 P17 ZESPE/N0350F200 N92 EXMOR |
| Aircraft | A320/M-SDE2E3FGHIJ1RWXYZ/LB1 |
Departure
| Time | 2026-05-08 16:02 |
|---|---|
| Airport | Manchester Airport (EGCC) |
Arrival
| Time | 2026-05-08 16:47 |
|---|---|
| Airport | Cornwall Airport Newquay (EGHQ) |
| Time | Latitude | Longitude | Altitude | Speed | Heading |
|---|---|---|---|---|---|
| 2026-05-08 15:17 | 53.36708 | -2.28852 | 255 ft | 0 kts | 315° |
| 2026-05-08 15:17 | 53.36706 | -2.28847 | 255 ft | 0 kts | 315° |
| 2026-05-08 15:46 | 53.36697 | -2.28834 | 255 ft | 4 kts | 315° |
| 2026-05-08 15:47 | 53.36675 | -2.28796 | 255 ft | 3 kts | 313° |
| 2026-05-08 15:47 | 53.36667 | -2.28780 | 255 ft | 4 kts | 259° |
| 2026-05-08 15:47 | 53.36686 | -2.28740 | 255 ft | 4 kts | 224° |
| 2026-05-08 15:47 | 53.36699 | -2.28718 | 255 ft | 0 kts | 224° |
| 2026-05-08 15:52 | 53.36698 | -2.28720 | 255 ft | 2 kts | 224° |
| 2026-05-08 15:52 | 53.36667 | -2.28755 | 255 ft | 9 kts | 200° |
| 2026-05-08 15:52 | 53.36597 | -2.28776 | 255 ft | 10 kts | 159° |
| 2026-05-08 15:52 | 53.36547 | -2.28703 | 255 ft | 9 kts | 134° |
| 2026-05-08 15:53 | 53.36508 | -2.28636 | 255 ft | 7 kts | 135° |
| 2026-05-08 15:53 | 53.36475 | -2.28581 | 255 ft | 6 kts | 135° |
| 2026-05-08 15:53 | 53.36448 | -2.28536 | 255 ft | 5 kts | 134° |
| 2026-05-08 15:53 | 53.36428 | -2.28498 | 255 ft | 5 kts | 128° |
| 2026-05-08 15:54 | 53.36408 | -2.28431 | 255 ft | 8 kts | 114° |
| 2026-05-08 15:54 | 53.36370 | -2.28328 | 255 ft | 13 kts | 134° |
| 2026-05-08 15:54 | 53.36301 | -2.28211 | 255 ft | 15 kts | 134° |
| 2026-05-08 15:54 | 53.36230 | -2.28091 | 255 ft | 14 kts | 134° |
| 2026-05-08 15:55 | 53.36164 | -2.27984 | 255 ft | 12 kts | 140° |
| 2026-05-08 15:55 | 53.36048 | -2.27832 | 255 ft | 9 kts | 142° |
| 2026-05-08 15:55 | 53.36002 | -2.27773 | 255 ft | 8 kts | 144° |
| 2026-05-08 15:56 | 53.35958 | -2.27734 | 255 ft | 9 kts | 162° |
| 2026-05-08 15:56 | 53.35872 | -2.27729 | 255 ft | 15 kts | 182° |
| 2026-05-08 15:56 | 53.35765 | -2.27664 | 250 ft | 19 kts | 153° |
| 2026-05-08 15:56 | 53.35649 | -2.27560 | 246 ft | 19 kts | 141° |
| 2026-05-08 15:57 | 53.35577 | -2.27465 | 245 ft | 5 kts | 141° |
| 2026-05-08 15:57 | 53.35576 | -2.27463 | 245 ft | 0 kts | 141° |
| 2026-05-08 15:58 | 53.35575 | -2.27461 | 245 ft | 2 kts | 141° |
| 2026-05-08 15:58 | 53.35548 | -2.27425 | 246 ft | 8 kts | 141° |
| 2026-05-08 15:58 | 53.35487 | -2.27342 | 248 ft | 13 kts | 141° |
| 2026-05-08 15:59 | 53.35412 | -2.27241 | 246 ft | 15 kts | 141° |
| 2026-05-08 15:59 | 53.35307 | -2.27198 | 242 ft | 17 kts | 187° |
| 2026-05-08 15:59 | 53.35194 | -2.27236 | 232 ft | 12 kts | 191° |
| 2026-05-08 15:59 | 53.35133 | -2.27256 | 229 ft | 10 kts | 191° |
| 2026-05-08 16:00 | 53.35061 | -2.27280 | 228 ft | 11 kts | 191° |
| 2026-05-08 16:00 | 53.35001 | -2.27339 | 225 ft | 5 kts | 230° |
| 2026-05-08 16:00 | 53.34996 | -2.27348 | 225 ft | 0 kts | 230° |
| 2026-05-08 16:01 | 53.34994 | -2.27353 | 225 ft | 4 kts | 230° |
| 2026-05-08 16:01 | 53.34845 | -2.27659 | 223 ft | 72 kts | 231° |
| 2026-05-08 16:01 | 53.34398 | -2.28582 | 225 ft | 133 kts | 231° |
| 2026-05-08 16:01 | 53.33711 | -2.29989 | 425 ft | 161 kts | 230° |
| 2026-05-08 16:02 | 53.33014 | -2.31400 | 1142 ft | 159 kts | 231° |
| 2026-05-08 16:02 | 53.32314 | -2.32931 | 1603 ft | 176 kts | 232° |
| 2026-05-08 16:02 | 53.31674 | -2.34824 | 1946 ft | 199 kts | 248° |
| 2026-05-08 16:02 | 53.31336 | -2.37216 | 2266 ft | 225 kts | 265° |
| 2026-05-08 16:03 | 53.31483 | -2.39964 | 2681 ft | 251 kts | 283° |
| 2026-05-08 16:03 | 53.31912 | -2.42867 | 3387 ft | 261 kts | 278° |
| 2026-05-08 16:03 | 53.31989 | -2.45918 | 4248 ft | 264 kts | 262° |
| 2026-05-08 16:03 | 53.31618 | -2.48931 | 5143 ft | 266 kts | 252° |
| 2026-05-08 16:04 | 53.31100 | -2.51913 | 6065 ft | 269 kts | 250° |
| 2026-05-08 16:04 | 53.30540 | -2.54907 | 6959 ft | 271 kts | 250° |
| 2026-05-08 16:04 | 53.29963 | -2.57932 | 7811 ft | 275 kts | 249° |
| 2026-05-08 16:04 | 53.29246 | -2.60892 | 8635 ft | 277 kts | 243° |
| 2026-05-08 16:05 | 53.28338 | -2.63746 | 9499 ft | 278 kts | 231° |
| 2026-05-08 16:05 | 53.26998 | -2.66058 | 10312 ft | 280 kts | 217° |
| 2026-05-08 16:05 | 53.25364 | -2.67971 | 10583 ft | 302 kts | 213° |
| 2026-05-08 16:05 | 53.23588 | -2.69987 | 11071 ft | 314 kts | 213° |
| 2026-05-08 16:06 | 53.21706 | -2.72131 | 11815 ft | 319 kts | 214° |
| 2026-05-08 16:06 | 53.19937 | -2.74156 | 12586 ft | 320 kts | 214° |
| 2026-05-08 16:06 | 53.18096 | -2.76273 | 13340 ft | 323 kts | 214° |
| 2026-05-08 16:06 | 53.16235 | -2.78415 | 14080 ft | 326 kts | 214° |
| 2026-05-08 16:07 | 53.14361 | -2.80574 | 14730 ft | 329 kts | 214° |
| 2026-05-08 16:07 | 53.12467 | -2.82758 | 15388 ft | 333 kts | 214° |
| 2026-05-08 16:07 | 53.10572 | -2.84906 | 16029 ft | 336 kts | 211° |
| 2026-05-08 16:07 | 53.08449 | -2.86550 | 16650 ft | 339 kts | 198° |
| 2026-05-08 16:08 | 53.06126 | -2.87344 | 17279 ft | 344 kts | 186° |
| 2026-05-08 16:08 | 53.03721 | -2.87223 | 17901 ft | 349 kts | 173° |
| 2026-05-08 16:08 | 53.01311 | -2.86558 | 18505 ft | 352 kts | 172° |
| 2026-05-08 16:08 | 52.98886 | -2.85890 | 19044 ft | 355 kts | 173° |
| 2026-05-08 16:09 | 52.96439 | -2.85224 | 19578 ft | 358 kts | 173° |
| 2026-05-08 16:09 | 52.93971 | -2.84556 | 20117 ft | 361 kts | 173° |
| 2026-05-08 16:09 | 52.91482 | -2.83878 | 20647 ft | 364 kts | 173° |
| 2026-05-08 16:09 | 52.88969 | -2.83197 | 21170 ft | 368 kts | 173° |
| 2026-05-08 16:10 | 52.86465 | -2.82526 | 21690 ft | 371 kts | 173° |
| 2026-05-08 16:10 | 52.83909 | -2.81847 | 22214 ft | 374 kts | 174° |
| 2026-05-08 16:10 | 52.81326 | -2.81158 | 22747 ft | 377 kts | 174° |
| 2026-05-08 16:10 | 52.78730 | -2.80463 | 23035 ft | 380 kts | 174° |
| 2026-05-08 16:11 | 52.76168 | -2.79771 | 23082 ft | 367 kts | 174° |
| 2026-05-08 16:11 | 52.73694 | -2.79101 | 23084 ft | 357 kts | 174° |
| 2026-05-08 16:11 | 52.71255 | -2.78444 | 23076 ft | 355 kts | 174° |
| 2026-05-08 16:11 | 52.68820 | -2.77791 | 23079 ft | 354 kts | 174° |
| 2026-05-08 16:12 | 52.66389 | -2.77143 | 23078 ft | 354 kts | 174° |
| 2026-05-08 16:12 | 52.63988 | -2.76508 | 23078 ft | 354 kts | 174° |
| 2026-05-08 16:12 | 52.61560 | -2.75932 | 23075 ft | 352 kts | 179° |
| 2026-05-08 16:12 | 52.59120 | -2.75956 | 23077 ft | 350 kts | 186° |
| 2026-05-08 16:13 | 52.56683 | -2.76174 | 23076 ft | 350 kts | 186° |
| 2026-05-08 16:13 | 52.54251 | -2.76388 | 23076 ft | 350 kts | 186° |
| 2026-05-08 16:13 | 52.51817 | -2.76599 | 23079 ft | 350 kts | 186° |
| 2026-05-08 16:13 | 52.49383 | -2.76808 | 23080 ft | 350 kts | 186° |
| 2026-05-08 16:14 | 52.46954 | -2.77019 | 23063 ft | 350 kts | 185° |
| 2026-05-08 16:14 | 52.44546 | -2.77231 | 23063 ft | 350 kts | 185° |
| 2026-05-08 16:14 | 52.42112 | -2.77441 | 23064 ft | 351 kts | 185° |
| 2026-05-08 16:14 | 52.39676 | -2.77650 | 23065 ft | 351 kts | 185° |
| 2026-05-08 16:15 | 52.37236 | -2.77862 | 23061 ft | 351 kts | 185° |
| 2026-05-08 16:15 | 52.34800 | -2.78070 | 23064 ft | 351 kts | 185° |
| 2026-05-08 16:15 | 52.32362 | -2.78279 | 23064 ft | 351 kts | 185° |
| 2026-05-08 16:15 | 52.29926 | -2.78485 | 23066 ft | 351 kts | 185° |
| 2026-05-08 16:16 | 52.27484 | -2.78694 | 23070 ft | 351 kts | 185° |
| 2026-05-08 16:16 | 52.25048 | -2.78905 | 23061 ft | 351 kts | 185° |
| 2026-05-08 16:16 | 52.22638 | -2.79116 | 23059 ft | 351 kts | 185° |
| 2026-05-08 16:16 | 52.20196 | -2.79326 | 23059 ft | 351 kts | 185° |
| 2026-05-08 16:17 | 52.17756 | -2.79536 | 23057 ft | 352 kts | 185° |
| 2026-05-08 16:17 | 52.15312 | -2.79748 | 23059 ft | 352 kts | 185° |
| 2026-05-08 16:17 | 52.12870 | -2.79958 | 23060 ft | 352 kts | 185° |
| 2026-05-08 16:17 | 52.10423 | -2.80165 | 23062 ft | 352 kts | 185° |
| 2026-05-08 16:18 | 52.07976 | -2.80369 | 23061 ft | 352 kts | 185° |
| 2026-05-08 16:18 | 52.05560 | -2.80569 | 23063 ft | 352 kts | 185° |
| 2026-05-08 16:18 | 52.03114 | -2.80776 | 23064 ft | 352 kts | 185° |
| 2026-05-08 16:18 | 52.00668 | -2.80983 | 23059 ft | 352 kts | 185° |
| 2026-05-08 16:19 | 51.98220 | -2.81191 | 23057 ft | 352 kts | 185° |
| 2026-05-08 16:19 | 51.95772 | -2.81396 | 23080 ft | 352 kts | 185° |
| 2026-05-08 16:19 | 51.93326 | -2.81600 | 23086 ft | 352 kts | 185° |
| 2026-05-08 16:19 | 51.90880 | -2.81803 | 23092 ft | 352 kts | 185° |
| 2026-05-08 16:20 | 51.88432 | -2.82008 | 23097 ft | 352 kts | 185° |
| 2026-05-08 16:20 | 51.86012 | -2.82213 | 23100 ft | 352 kts | 186° |
| 2026-05-08 16:20 | 51.83574 | -2.82532 | 23105 ft | 352 kts | 188° |
| 2026-05-08 16:20 | 51.81143 | -2.83009 | 23110 ft | 351 kts | 190° |
| 2026-05-08 16:21 | 51.78728 | -2.83563 | 23113 ft | 351 kts | 191° |
| 2026-05-08 16:21 | 51.76311 | -2.84143 | 23100 ft | 351 kts | 191° |
| 2026-05-08 16:21 | 51.73893 | -2.84717 | 23101 ft | 351 kts | 190° |
| 2026-05-08 16:21 | 51.71474 | -2.85274 | 23103 ft | 351 kts | 190° |
| 2026-05-08 16:22 | 51.69058 | -2.85810 | 23104 ft | 351 kts | 190° |
| 2026-05-08 16:22 | 51.66630 | -2.86330 | 23106 ft | 351 kts | 189° |
| 2026-05-08 16:22 | 51.64239 | -2.86835 | 23105 ft | 351 kts | 189° |
| 2026-05-08 16:22 | 51.61817 | -2.87348 | 23102 ft | 351 kts | 189° |
| 2026-05-08 16:23 | 51.59393 | -2.87862 | 23098 ft | 351 kts | 189° |
| 2026-05-08 16:23 | 51.56990 | -2.88530 | 23092 ft | 350 kts | 197° |
| 2026-05-08 16:23 | 51.54728 | -2.89900 | 23101 ft | 347 kts | 208° |
| 2026-05-08 16:23 | 51.52701 | -2.91972 | 23087 ft | 345 kts | 219° |
| 2026-05-08 16:24 | 51.50827 | -2.94377 | 23082 ft | 345 kts | 219° |
| 2026-05-08 16:24 | 51.48948 | -2.96782 | 23077 ft | 345 kts | 219° |
| 2026-05-08 16:24 | 51.47093 | -2.99142 | 23053 ft | 345 kts | 219° |
| 2026-05-08 16:24 | 51.45207 | -3.01533 | 23054 ft | 345 kts | 219° |
| 2026-05-08 16:25 | 51.43327 | -3.03917 | 23056 ft | 346 kts | 219° |
| 2026-05-08 16:25 | 51.41440 | -3.06308 | 23055 ft | 345 kts | 219° |
| 2026-05-08 16:25 | 51.39555 | -3.08694 | 23055 ft | 345 kts | 219° |
| 2026-05-08 16:25 | 51.37667 | -3.11079 | 23054 ft | 345 kts | 219° |
| 2026-05-08 16:26 | 51.35785 | -3.13455 | 23054 ft | 345 kts | 219° |
| 2026-05-08 16:26 | 51.33901 | -3.15835 | 23055 ft | 345 kts | 219° |
| 2026-05-08 16:26 | 51.32015 | -3.18212 | 23043 ft | 345 kts | 219° |
| 2026-05-08 16:26 | 51.30153 | -3.20556 | 23043 ft | 345 kts | 219° |
| 2026-05-08 16:27 | 51.28266 | -3.22929 | 23035 ft | 345 kts | 219° |
| 2026-05-08 16:27 | 51.26402 | -3.25295 | 22975 ft | 338 kts | 220° |
| 2026-05-08 16:27 | 51.24606 | -3.27668 | 22632 ft | 332 kts | 220° |
| 2026-05-08 16:27 | 51.22840 | -3.30018 | 22198 ft | 329 kts | 220° |
| 2026-05-08 16:28 | 51.21089 | -3.32357 | 21729 ft | 329 kts | 220° |
| 2026-05-08 16:28 | 51.19341 | -3.34696 | 21309 ft | 327 kts | 220° |
| 2026-05-08 16:28 | 51.17606 | -3.37018 | 20895 ft | 325 kts | 220° |
| 2026-05-08 16:28 | 51.15877 | -3.39334 | 20481 ft | 323 kts | 220° |
| 2026-05-08 16:29 | 51.14181 | -3.41605 | 20074 ft | 322 kts | 220° |
| 2026-05-08 16:29 | 51.12472 | -3.43895 | 19682 ft | 321 kts | 220° |
| 2026-05-08 16:29 | 51.10766 | -3.46183 | 19278 ft | 320 kts | 220° |
| 2026-05-08 16:29 | 51.09070 | -3.48458 | 18895 ft | 319 kts | 220° |
| 2026-05-08 16:30 | 51.07377 | -3.50732 | 18521 ft | 318 kts | 220° |
| 2026-05-08 16:30 | 51.05695 | -3.52992 | 18129 ft | 316 kts | 220° |
| 2026-05-08 16:30 | 51.04019 | -3.55245 | 17730 ft | 315 kts | 220° |
| 2026-05-08 16:30 | 51.02353 | -3.57489 | 17344 ft | 313 kts | 220° |
| 2026-05-08 16:31 | 51.00703 | -3.59716 | 16968 ft | 310 kts | 220° |
| 2026-05-08 16:31 | 50.99066 | -3.61930 | 16599 ft | 309 kts | 220° |
| 2026-05-08 16:31 | 50.97460 | -3.64105 | 16244 ft | 307 kts | 220° |
| 2026-05-08 16:31 | 50.95842 | -3.66302 | 15893 ft | 305 kts | 220° |
| 2026-05-08 16:32 | 50.94237 | -3.68485 | 15547 ft | 303 kts | 220° |
| 2026-05-08 16:32 | 50.92641 | -3.70661 | 15205 ft | 302 kts | 220° |
| 2026-05-08 16:32 | 50.91055 | -3.72829 | 14868 ft | 300 kts | 220° |
| 2026-05-08 16:32 | 50.89482 | -3.74984 | 14531 ft | 298 kts | 220° |
| 2026-05-08 16:33 | 50.87918 | -3.77135 | 14207 ft | 297 kts | 220° |
| 2026-05-08 16:33 | 50.86389 | -3.79264 | 13882 ft | 296 kts | 220° |
| 2026-05-08 16:33 | 50.84896 | -3.81486 | 13537 ft | 295 kts | 227° |
| 2026-05-08 16:33 | 50.83590 | -3.83986 | 13155 ft | 294 kts | 230° |
| 2026-05-08 16:34 | 50.82327 | -3.86514 | 12792 ft | 292 kts | 230° |
| 2026-05-08 16:34 | 50.81072 | -3.89031 | 12432 ft | 291 kts | 230° |
| 2026-05-08 16:34 | 50.79821 | -3.91527 | 12070 ft | 289 kts | 230° |
| 2026-05-08 16:34 | 50.78570 | -3.94011 | 11711 ft | 288 kts | 230° |
| 2026-05-08 16:35 | 50.77327 | -3.96477 | 11360 ft | 286 kts | 230° |
| 2026-05-08 16:35 | 50.76094 | -3.98926 | 11011 ft | 285 kts | 230° |
| 2026-05-08 16:35 | 50.74864 | -4.01370 | 10657 ft | 283 kts | 230° |
| 2026-05-08 16:35 | 50.73659 | -4.03766 | 10326 ft | 281 kts | 230° |
| 2026-05-08 16:36 | 50.72451 | -4.06169 | 9989 ft | 279 kts | 230° |
| 2026-05-08 16:36 | 50.71250 | -4.08556 | 9621 ft | 277 kts | 230° |
| 2026-05-08 16:36 | 50.70056 | -4.10928 | 9240 ft | 275 kts | 230° |
| 2026-05-08 16:36 | 50.68868 | -4.13288 | 9032 ft | 274 kts | 230° |
| 2026-05-08 16:37 | 50.67680 | -4.15641 | 9037 ft | 275 kts | 230° |
| 2026-05-08 16:37 | 50.66488 | -4.18002 | 9043 ft | 275 kts | 230° |
| 2026-05-08 16:37 | 50.65305 | -4.20348 | 8759 ft | 273 kts | 230° |
| 2026-05-08 16:37 | 50.64125 | -4.22684 | 8339 ft | 272 kts | 230° |
| 2026-05-08 16:38 | 50.62947 | -4.25014 | 7949 ft | 271 kts | 230° |
| 2026-05-08 16:38 | 50.61791 | -4.27298 | 7565 ft | 270 kts | 230° |
| 2026-05-08 16:38 | 50.60621 | -4.29605 | 7175 ft | 270 kts | 230° |
| 2026-05-08 16:38 | 50.59457 | -4.31899 | 7032 ft | 268 kts | 230° |
| 2026-05-08 16:39 | 50.58291 | -4.34193 | 7045 ft | 269 kts | 230° |
| 2026-05-08 16:39 | 50.57119 | -4.36502 | 7044 ft | 270 kts | 230° |
| 2026-05-08 16:39 | 50.55947 | -4.38808 | 7037 ft | 269 kts | 230° |
| 2026-05-08 16:39 | 50.54791 | -4.41098 | 6840 ft | 267 kts | 230° |
| 2026-05-08 16:40 | 50.53636 | -4.43383 | 6450 ft | 266 kts | 230° |
| 2026-05-08 16:40 | 50.52503 | -4.45626 | 6025 ft | 265 kts | 230° |
| 2026-05-08 16:40 | 50.51359 | -4.47891 | 5614 ft | 264 kts | 230° |
| 2026-05-08 16:40 | 50.50219 | -4.50154 | 5215 ft | 263 kts | 230° |
| 2026-05-08 16:41 | 50.49089 | -4.52397 | 4945 ft | 262 kts | 230° |
| 2026-05-08 16:41 | 50.47954 | -4.54644 | 4684 ft | 263 kts | 230° |
| 2026-05-08 16:41 | 50.46818 | -4.56888 | 4419 ft | 262 kts | 230° |
| 2026-05-08 16:42 | 50.44839 | -4.61691 | 3902 ft | 263 kts | 239° |
| 2026-05-08 16:42 | 50.43979 | -4.64169 | 3574 ft | 261 kts | 240° |
| 2026-05-08 16:42 | 50.43113 | -4.66673 | 3126 ft | 261 kts | 240° |
| 2026-05-08 16:42 | 50.42258 | -4.69121 | 2947 ft | 250 kts | 240° |
| 2026-05-08 16:43 | 50.41441 | -4.71459 | 2813 ft | 238 kts | 240° |
| 2026-05-08 16:43 | 50.40666 | -4.73682 | 2683 ft | 226 kts | 240° |
| 2026-05-08 16:43 | 50.39933 | -4.75787 | 2576 ft | 214 kts | 240° |
| 2026-05-08 16:43 | 50.39238 | -4.77786 | 2509 ft | 202 kts | 239° |
| 2026-05-08 16:44 | 50.38591 | -4.79672 | 2520 ft | 193 kts | 240° |
| 2026-05-08 16:44 | 50.38173 | -4.81653 | 2534 ft | 193 kts | 261° |
| 2026-05-08 16:44 | 50.38247 | -4.83713 | 2441 ft | 193 kts | 283° |
| 2026-05-08 16:44 | 50.38809 | -4.85612 | 2250 ft | 192 kts | 300° |
| 2026-05-08 16:45 | 50.39483 | -4.87381 | 2007 ft | 186 kts | 300° |
| 2026-05-08 16:45 | 50.40127 | -4.89077 | 1764 ft | 175 kts | 300° |
| 2026-05-08 16:45 | 50.40725 | -4.90657 | 1533 ft | 164 kts | 300° |
| 2026-05-08 16:45 | 50.41299 | -4.92169 | 1325 ft | 158 kts | 301° |
| 2026-05-08 16:46 | 50.41850 | -4.93630 | 1106 ft | 152 kts | 303° |
| 2026-05-08 16:46 | 50.42380 | -4.95040 | 892 ft | 149 kts | 303° |
| 2026-05-08 16:46 | 50.42898 | -4.96407 | 729 ft | 149 kts | 303° |
| 2026-05-08 16:46 | 50.43422 | -4.97811 | 465 ft | 147 kts | 303° |
| 2026-05-08 16:47 | 50.43934 | -4.99144 | 361 ft | 130 kts | 301° |
| 2026-05-08 16:47 | 50.44238 | -4.99958 | 350 ft | 43 kts | 301° |
| 2026-05-08 16:47 | 50.44292 | -5.00100 | 347 ft | 12 kts | 298° |
| 2026-05-08 16:47 | 50.44358 | -5.00286 | 335 ft | 25 kts | 299° |
| 2026-05-08 16:48 | 50.44456 | -5.00532 | 331 ft | 29 kts | 304° |
| 2026-05-08 16:48 | 50.44562 | -5.00816 | 322 ft | 32 kts | 301° |
| 2026-05-08 16:48 | 50.44654 | -5.01060 | 317 ft | 15 kts | 301° |
| 2026-05-08 16:48 | 50.44740 | -5.01140 | 314 ft | 17 kts | 12° |
| 2026-05-08 16:49 | 50.44806 | -5.01009 | 317 ft | 13 kts | 80° |
| 2026-05-08 16:49 | 50.44790 | -5.00889 | 320 ft | 9 kts | 117° |
| 2026-05-08 16:49 | 50.44761 | -5.00810 | 322 ft | 9 kts | 120° |
| 2026-05-08 16:49 | 50.44725 | -5.00712 | 324 ft | 12 kts | 121° |
| 2026-05-08 16:50 | 50.44681 | -5.00597 | 325 ft | 0 kts | 120° |
| 2026-05-08 16:51 | 50.44670 | -5.00544 | 326 ft | 10 kts | 88° |
| 2026-05-08 16:51 | 50.44676 | -5.00508 | 330 ft | 0 kts | 79° |
| 2026-05-08 16:51 | 50.44677 | -5.00498 | 331 ft | 3 kts | 79° |
| 2026-05-08 16:51 | 50.44679 | -5.00480 | 332 ft | 0 kts | 77° |
| 2026-05-08 16:52 | 50.44681 | -5.00469 | 333 ft | 0 kts | 77° |
| 2026-05-08 16:52 | 50.44682 | -5.00463 | 333 ft | 2 kts | 75° |
| 2026-05-08 16:52 | 50.44683 | -5.00460 | 333 ft | 0 kts | 75° |
| 2026-05-08 16:54 | 50.44683 | -5.00461 | 335 ft | 0 kts | 75° |
| 2026-05-08 16:56 | 50.44683 | -5.00460 | 335 ft | 0 kts | 75° |
| 2026-05-08 16:56 | 50.44683 | -5.00461 | 335 ft | 0 kts | 76° |
| 2026-05-08 16:56 | 50.44682 | -5.00461 | 334 ft | 0 kts | 76° |
| 2026-05-08 17:00 | 50.44682 | -5.00460 | 335 ft | 0 kts | 75° |